首页
METAR-TAF:

METAR-TAF

机场 :

Yorkton, 薩斯喀徹溫, 加拿大

纬度: 51-16N, 经度: 102-28W, 海拔: 498米

当前天气观测

该预报发布于41分钟前的03:00 UTC
风速6节,风向东北
温度 11°C
湿度 66%
气压 1019 hPa
能見度: 14.5公里
阴天层高于4800英尺

METAR: CYQV 280300Z AUTO 04006KT 9SM OVC048 11/05 A3010 RMK SLP209

时间: 21:41 (03:41 UTC)

预报

该预报发布于4小时和1分钟前的23:40 UTC
预报有效从28日的 00点(UTC)到 28日的 06点(UTC)
风速15节,风向
能見度: 10公里
多云层高于5000英尺
短暂存在
从 28日的 00点(UTC)到 28日的 06点(UTC)
阴天层高于4000英尺
成为
从 28日的 02点(UTC)到 28日的 04点(UTC)
风速8节,风向东北

TAF: CYQV 272340Z 2800/2806 01015KT P6SM BKN050 TEMPO 2800/2806 OVC040 BECMG 2802/2804 04008KT RMK FCST BASED ON AUTO OBS. NXT FCST BY 281200Z

超过4000个机场的气象观测和天气预报(METAR&TAF报告)。

可查询的气象台以黄色和红色小点在地图上表示。

将鼠标移到小点上方,可查看气象台名称。

然后点击查看天气观测和预报。

如需切换地图:点击带黑十字的绿色按钮放大地图;点击带横线的绿色按钮缩小地图;或者点击绿色箭头查看邻近地区的地图。


METAR-TAF: